Time;durP1;ratioP1;P1;durP2;ratioP2;P2;SDS_P1;SDS_P2;PMS_P1;PMS_P2;Temp;Humidity;BMP_temperature;BMP_pressure;BME280_temperature;BME280_humidity;BME280_pressure;Samples;Min_cycle;Max_cycle;Signal;HPM_P1;HPM_P2
2023/01/29 00:00:47;;;;;;;;;58.50;45.75;;;;;3.39;56.86;102595.25;5038512;28;45474;-76
2023/01/29 00:03:12;;;;;;;;;56.25;45.50;;;;;3.64;57.60;102630.34;5035744;28;53454;-76
2023/01/29 00:05:37;;;;;;;;;43.25;38.00;;;;;3.78;57.58;102657.00;5018003;28;45483;-77
2023/01/29 00:08:03;;;;;;;;;62.75;47.00;;;;;3.54;57.64;102594.75;5018911;28;47482;-75
2023/01/29 00:10:28;;;;;;;;;50.00;40.00;;;;;3.91;57.05;102655.66;5037371;28;45321;-74
2023/01/29 00:12:54;;;;;;;;;50.00;38.00;;;;;3.88;56.99;102637.38;5019086;28;45353;-75
2023/01/29 00:15:19;;;;;;;;;49.67;39.00;;;;;3.44;56.43;102561.81;5018946;28;45340;-73
2023/01/29 00:17:45;;;;;;;;;49.33;38.00;;;;;3.82;56.83;102619.19;5037165;28;45834;-73
2023/01/29 00:20:11;;;;;;;;;50.00;40.00;;;;;3.71;56.29;102567.84;5037399;28;45555;-75
2023/01/29 00:22:36;;;;;;;;;50.33;39.00;;;;;3.60;56.55;102534.03;5018995;28;45412;-74
2023/01/29 00:25:01;;;;;;;;;52.33;38.33;;;;;4.18;56.44;102624.00;5019577;28;45672;-75
2023/01/29 00:27:27;;;;;;;;;49.33;39.67;;;;;3.74;56.43;102570.38;5037320;28;45617;-73
2023/01/29 00:30:08;;;;;;;;;53.75;38.75;;;;;2.55;56.81;102386.19;5019018;28;45257;-74
2023/01/29 00:32:33;;;;;;;;;58.50;41.75;;;;;4.06;55.88;102624.47;5019001;28;45317;-75
2023/01/29 00:34:59;;;;;;;;;51.50;40.75;;;;;3.56;56.28;102550.84;5037200;28;45456;-74
2023/01/29 00:37:24;;;;;;;;;45.67;37.33;;;;;3.96;56.51;102593.19;5040092;28;45906;-74
2023/01/29 00:39:49;;;;;;;;;43.75;36.00;;;;;3.66;56.54;102553.09;5040500;28;45332;-75
2023/01/29 00:44:59;;;;;;;;;47.00;39.33;;;;;4.05;56.46;102628.00;5040364;28;45345;-73
2023/01/29 00:47:34;;;;;;;;;52.50;40.75;;;;;3.77;56.85;102575.50;5039768;28;45915;-76
2023/01/29 00:50:05;;;;;;;;;54.50;42.25;;;;;3.92;57.20;102586.34;5040109;28;45403;-75
2023/01/29 00:52:31;;;;;;;;;52.33;39.67;;;;;3.81;56.77;102567.47;5040018;28;45193;-73
2023/01/29 00:54:58;;;;;;;;;59.25;47.00;;;;;3.67;56.27;102553.97;5040351;28;45417;-75
2023/01/29 00:57:26;;;;;;;;;60.25;45.75;;;;;3.10;57.61;102463.09;5039967;28;46454;-74
2023/01/29 00:59:51;;;;;;;;;51.50;38.25;;;;;4.14;57.23;102648.72;5021824;28;45378;-73
2023/01/29 01:05:04;;;;;;;;;46.33;35.67;;;;;3.89;56.78;102591.72;5040425;28;45344;-76
2023/01/29 01:07:30;;;;;;;;;45.67;40.33;;;;;4.10;57.60;102623.44;5042921;28;46311;-74
2023/01/29 01:12:40;;;;;;;;;51.67;39.00;;;;;3.79;57.52;102571.91;5040697;28;45555;-74
2023/01/29 01:15:05;;;;;;;;;44.33;39.00;;;;;4.13;56.35;102620.69;5022083;28;45571;-75
2023/01/29 01:17:31;;;;;;;;;55.00;43.67;;;;;4.05;56.62;102628.88;5039903;28;47818;-74
2023/01/29 01:19:56;;;;;;;;;49.33;36.33;;;;;4.03;57.40;102621.94;5039913;28;45496;-74
2023/01/29 01:22:22;;;;;;;;;42.33;35.67;;;;;3.79;57.10;102584.19;5022432;28;46284;-77
2023/01/29 01:24:47;;;;;;;;;51.67;40.00;;;;;3.96;56.99;102635.31;5040969;28;45223;-75
2023/01/29 01:27:12;;;;;;;;;55.50;40.50;;;;;3.50;57.50;102567.69;5040464;28;46338;-73
2023/01/29 01:29:38;;;;;;;;;40.50;37.25;;;;;3.80;57.58;102607.81;5092282;27;45289;-73
2023/01/29 01:32:05;;;;;;;;;48.50;40.25;;;;;3.96;57.16;102622.16;5058641;28;57269;-74
2023/01/29 01:34:30;;;;;;;;;54.00;43.00;;;;;3.96;57.41;102629.19;5058353;28;45640;-75
2023/01/29 01:36:55;;;;;;;;;57.25;45.25;;;;;3.77;57.76;102607.06;5059343;28;45518;-74
2023/01/29 01:39:22;;;;;;;;;54.75;43.75;;;;;3.54;57.08;102578.97;5059726;28;45471;-74
2023/01/29 01:41:47;;;;;;;;;50.75;41.50;;;;;3.84;57.22;102630.50;5059760;28;45234;-73
2023/01/29 01:44:52;;;;;;;;;51.25;39.75;;;;;3.69;58.17;102631.03;5059682;28;45490;-76
2023/01/29 01:47:25;;;;;;;;;52.75;41.25;;;;;3.61;58.25;102631.31;5057029;28;45779;-74
2023/01/29 01:49:52;;;;;;;;;53.50;40.25;;;;;3.16;58.21;102559.25;5058147;28;45397;-76
2023/01/29 01:52:19;;;;;;;;;54.67;39.67;;;;;3.62;58.67;102621.66;5059838;28;45258;-74
2023/01/29 01:54:45;;;;;;;;;55.25;40.75;;;;;3.71;58.16;102628.34;5059639;28;45347;-74
2023/01/29 01:57:23;;;;;;;;;47.50;36.00;;;;;3.76;58.15;102647.47;5059242;28;46460;-74
2023/01/29 01:59:55;;;;;;;;;41.00;39.00;;;;;3.47;58.56;102585.38;5059185;28;45320;-74
2023/01/29 02:10:43;;;;;;;;;58.00;44.50;;;;;2.08;58.25;102370.28;5058953;28;45442;-73
2023/01/29 02:13:09;;;;;;;;;57.00;44.25;;;;;3.70;58.72;102643.28;5057861;28;45266;-74
2023/01/29 02:15:35;;;;;;;;;57.00;43.25;;;;;3.60;59.49;102624.34;5059408;28;45491;-73
2023/01/29 02:18:00;;;;;;;;;57.50;43.75;;;;;3.35;58.79;102594.53;5057453;28;47735;-73
2023/01/29 02:20:30;;;;;;;;;55.75;44.50;;;;;3.22;58.50;102566.94;5057584;28;45416;-74
2023/01/29 02:23:00;;;;;;;;;58.50;46.25;;;;;3.64;58.99;102639.09;5057212;28;45476;-73
2023/01/29 02:25:49;;;;;;;;;57.25;41.50;;;;;3.66;58.74;102649.56;5058827;28;45216;-74
2023/01/29 02:28:25;;;;;;;;;53.25;41.75;;;;;3.74;58.61;102644.88;5054195;28;45508;-72
2023/01/29 02:30:56;;;;;;;;;52.00;43.00;;;;;3.83;59.11;102639.31;5039981;28;45390;-73
2023/01/29 02:33:35;;;;;;;;;52.00;42.25;;;;;3.80;58.36;102620.13;5038565;28;45475;-71
2023/01/29 02:36:03;;;;;;;;;54.25;40.75;;;;;3.86;59.24;102633.94;5039802;28;45289;-71
2023/01/29 02:38:34;;;;;;;;;56.75;41.75;;;;;3.82;57.75;102637.59;5038027;28;45881;-74
2023/01/29 02:41:06;;;;;;;;;49.00;40.00;;;;;3.83;58.86;102643.72;5020198;28;45408;-74
2023/01/29 02:43:40;;;;;;;;;55.00;42.33;;;;;3.70;58.76;102638.00;5038327;28;45496;-72
2023/01/29 02:46:29;;;;;;;;;50.25;40.50;;;;;1.90;58.75;102323.66;5020515;28;45607;-74
2023/01/29 02:49:07;;;;;;;;;58.75;46.50;;;;;3.87;58.12;102633.03;5020170;28;48427;-74
2023/01/29 02:51:38;;;;;;;;;48.00;39.67;;;;;3.91;58.80;102624.09;5037949;28;45270;-74
2023/01/29 02:54:15;;;;;;;;;59.00;44.75;;;;;4.00;58.66;102624.66;5020072;28;45373;-74
2023/01/29 02:56:44;;;;;;;;;54.00;41.00;;;;;4.06;58.28;102621.84;5038305;28;45408;-74
2023/01/29 02:59:17;;;;;;;;;57.50;40.50;;;;;3.86;58.09;102585.72;5019945;28;49050;-74
2023/01/29 03:01:48;;;;;;;;;55.25;44.00;;;;;3.82;58.55;102566.56;5020154;28;45347;-75
2023/01/29 03:04:23;;;;;;;;;54.50;42.50;;;;;4.11;58.63;102606.72;5020098;28;45313;-74
2023/01/29 03:06:56;;;;;;;;;53.75;40.00;;;;;3.59;57.91;102517.41;5038144;28;45392;-76
2023/01/29 03:09:31;;;;;;;;;48.25;40.75;;;;;2.65;58.21;102355.25;5019860;28;46451;-74
2023/01/29 03:12:17;;;;;;;;;51.00;39.00;;;;;3.01;58.05;102417.00;5037857;28;45203;-74
2023/01/29 03:17:38;;;;;;;;;50.25;39.25;;;;;4.13;57.67;102603.13;5037986;28;45523;-73
2023/01/29 03:20:11;;;;;;;;;51.25;39.75;;;;;3.79;57.65;102535.06;5037380;28;46462;-74
2023/01/29 03:22:38;;;;;;;;;51.25;39.00;;;;;3.71;57.94;102544.19;5037643;28;45361;-76
2023/01/29 03:33:48;;;;;;;;;50.25;42.00;;;;;3.92;58.63;102596.00;5037290;28;45287;-74
2023/01/29 03:36:23;;;;;;;;;50.00;42.33;;;;;2.94;58.26;102427.75;5037702;28;45534;-71
2023/01/29 03:38:49;;;;;;;;;54.50;42.50;;;;;3.11;58.78;102470.06;5037993;28;45507;-73
2023/01/29 03:41:33;;;;;;;;;54.75;44.00;;;;;3.47;58.37;102532.78;5019057;28;46447;-73
2023/01/29 03:44:20;;;;;;;;;55.00;43.50;;;;;3.57;58.79;102560.44;5037517;28;45404;-72
2023/01/29 03:47:19;;;;;;;;;55.25;43.75;;;;;3.75;58.86;102609.75;5019175;28;45452;-74
2023/01/29 03:50:04;;;;;;;;;44.75;38.25;;;;;2.82;60.00;102457.09;5037585;28;45280;-74
2023/01/29 03:52:36;;;;;;;;;52.25;41.50;;;;;3.73;58.67;102616.00;5038606;28;47936;-74
2023/01/29 03:55:15;;;;;;;;;55.67;42.33;;;;;3.53;59.16;102572.84;5040142;28;45367;-73
2023/01/29 03:57:54;;;;;;;;;57.00;44.00;;;;;3.82;58.92;102595.50;5020234;28;45287;-74
2023/01/29 04:00:26;;;;;;;;;56.25;43.00;;;;;3.87;58.65;102601.44;5037542;28;45492;-74
2023/01/29 04:03:11;;;;;;;;;54.00;44.33;;;;;2.94;59.65;102441.75;5018913;28;48971;-74
2023/01/29 04:05:48;;;;;;;;;49.50;38.25;;;;;3.88;59.18;102590.00;5037426;28;45266;-71
2023/01/29 04:08:20;;;;;;;;;48.75;37.75;;;;;3.89;59.08;102591.72;5039225;28;45443;-71
2023/01/29 04:10:48;;;;;;;;;49.33;37.00;;;;;3.89;59.39;102594.34;5025747;28;45610;-72
2023/01/29 04:13:16;;;;;;;;;48.50;38.75;;;;;3.64;59.32;102546.19;5040845;28;45582;-74
2023/01/29 04:15:48;;;;;;;;;56.50;45.25;;;;;4.00;58.52;102593.09;5040684;28;45266;-77
2023/01/29 04:18:14;;;;;;;;;56.25;42.25;;;;;3.68;59.24;102550.41;5040494;28;45419;-72
2023/01/29 04:20:40;;;;;;;;;53.00;39.75;;;;;3.88;58.76;102579.47;5042033;28;45313;-73
2023/01/29 04:23:06;;;;;;;;;48.67;40.33;;;;;3.97;59.16;102592.28;5043008;28;45906;-71
2023/01/29 04:25:43;;;;;;;;;51.00;40.00;;;;;3.95;59.11;102599.38;5042489;28;45442;-74
2023/01/29 04:28:17;;;;;;;;;54.50;42.50;;;;;4.00;58.70;102600.97;5033046;28;45363;-74
2023/01/29 04:30:49;;;;;;;;;51.25;40.25;;;;;4.02;58.74;102612.34;5059507;28;45475;-73
2023/01/29 04:33:43;;;;;;;;;48.25;39.25;;;;;4.03;59.15;102599.13;5060415;28;45478;-73
2023/01/29 04:36:36;;;;;;;;;50.00;42.50;;;;;4.02;58.60;102605.31;5060094;28;45410;-71
2023/01/29 04:39:19;;;;;;;;;53.75;43.75;;;;;4.06;59.06;102609.53;5060357;28;45295;-72
2023/01/29 04:42:00;;;;;;;;;54.50;43.00;;;;;3.65;58.66;102526.84;5059035;28;45550;-75
2023/01/29 04:45:08;;;;;;;;;45.00;39.75;;;;;3.45;59.14;102509.16;5059858;28;45447;-75
2023/01/29 04:48:09;;;;;;;;;59.25;44.50;;;;;4.06;58.98;102604.25;5036565;28;45696;-74
2023/01/29 04:50:43;;;;;;;;;56.00;42.75;;;;;3.73;59.51;102564.25;5050971;28;45503;-76
2023/01/29 04:53:17;;;;;;;;;54.25;43.00;;;;;4.00;60.09;102608.88;5060225;28;45767;-75
2023/01/29 04:55:51;;;;;;;;;55.50;42.50;;;;;3.92;58.89;102596.88;5059723;28;46128;-74
2023/01/29 04:58:29;;;;;;;;;53.50;43.00;;;;;3.65;58.88;102566.31;5058622;28;45486;-72
2023/01/29 05:00:55;;;;;;;;;60.00;47.25;;;;;3.95;59.58;102623.06;5060061;28;45462;-75
2023/01/29 05:03:24;;;;;;;;;56.00;41.00;;;;;3.56;59.69;102562.22;5060178;28;45829;-74
2023/01/29 05:05:50;;;;;;;;;48.50;38.25;;;;;3.74;59.96;102613.31;5059831;28;46506;-75
2023/01/29 05:08:21;;;;;;;;;50.75;41.75;;;;;3.88;59.95;102623.34;5058817;28;45383;-75
2023/01/29 05:10:49;;;;;;;;;45.75;39.00;;;;;2.04;60.34;102304.88;5059065;28;45392;-72
2023/01/29 05:13:16;;;;;;;;;45.75;35.50;;;;;3.77;60.87;102602.69;5060286;28;45471;-75
2023/01/29 05:16:24;;;;;;;;;53.75;41.50;;;;;3.83;59.86;102614.78;5058177;28;48797;-74
2023/01/29 05:18:50;;;;;;;;;57.50;45.75;;;;;3.75;61.09;102617.66;5053999;28;45377;-75
2023/01/29 05:21:15;;;;;;;;;58.75;43.50;;;;;3.27;60.86;102533.47;5058125;28;45625;-73
2023/01/29 05:23:51;;;;;;;;;59.75;44.25;;;;;3.49;60.58;102575.66;5058504;28;45366;-76
2023/01/29 05:29:04;;;;;;;;;57.75;42.75;;;;;3.45;60.57;102574.03;5044730;28;45310;-73
2023/01/29 05:31:30;;;;;;;;;54.00;43.75;;;;;3.76;60.79;102587.81;5039559;28;45253;-73
2023/01/29 05:33:55;;;;;;;;;55.50;44.75;;;;;3.66;60.87;102584.66;5021476;28;45550;-75
2023/01/29 05:36:20;;;;;;;;;51.50;40.50;;;;;3.62;61.00;102598.84;5039139;28;45543;-74
2023/01/29 05:38:46;;;;;;;;;57.25;46.50;;;;;3.50;61.50;102580.00;5039065;28;53195;-72
2023/01/29 05:41:11;;;;;;;;;53.50;41.75;;;;;3.57;61.44;102607.78;5039301;28;45340;-73
2023/01/29 05:43:36;;;;;;;;;57.25;48.00;;;;;3.51;61.70;102594.84;5021571;28;45525;-74
2023/01/29 05:46:02;;;;;;;;;55.25;46.00;;;;;2.49;62.12;102432.81;5021049;28;47359;-73
2023/01/29 05:48:28;;;;;;;;;50.25;41.25;;;;;3.50;61.03;102608.91;5039206;28;45338;-75
2023/01/29 05:50:58;;;;;;;;;52.75;43.25;;;;;3.14;61.90;102569.81;5042798;28;45420;-76
2023/01/29 05:53:23;;;;;;;;;52.75;41.25;;;;;3.07;61.46;102536.78;5024359;28;45253;-75
2023/01/29 05:55:49;;;;;;;;;60.00;45.75;;;;;3.11;62.12;102561.19;5039233;28;46504;-74
2023/01/29 05:58:14;;;;;;;;;59.25;47.50;;;;;3.25;61.77;102596.63;5020584;28;45445;-73
2023/01/29 06:00:40;;;;;;;;;57.75;44.25;;;;;3.29;62.31;102595.59;5021103;28;45443;-72
2023/01/29 06:03:06;;;;;;;;;55.00;43.25;;;;;3.28;62.02;102582.50;5039165;28;45190;-73
2023/01/29 06:05:31;;;;;;;;;60.75;45.00;;;;;3.32;61.95;102599.88;5038780;28;45443;-75
2023/01/29 06:07:56;;;;;;;;;52.25;42.00;;;;;2.62;62.53;102445.50;5038524;28;45187;-73
2023/01/29 06:10:22;;;;;;;;;58.25;44.25;;;;;2.67;61.37;102437.47;5020887;28;45410;-74
2023/01/29 06:12:48;;;;;;;;;52.50;45.75;;;;;3.51;61.72;102600.13;5038975;28;45563;-74
2023/01/29 06:15:18;;;;;;;;;58.33;46.00;;;;;3.07;61.71;102535.94;5038583;28;45285;-74
2023/01/29 06:17:44;;;;;;;;;59.00;47.25;;;;;3.46;61.74;102597.66;5020701;28;46482;-78
2023/01/29 06:20:10;;;;;;;;;52.00;45.25;;;;;3.34;61.63;102572.63;5038870;28;45500;-72
2023/01/29 06:22:35;;;;;;;;;40.50;37.75;;;;;3.21;61.19;102552.09;5038743;28;45464;-74
2023/01/29 06:25:00;;;;;;;;;58.50;41.25;;;;;3.69;61.41;102620.50;5038456;28;46169;-74
2023/01/29 06:27:26;;;;;;;;;58.00;47.25;;;;;3.77;61.38;102625.50;5038270;28;45474;-73
2023/01/29 06:29:51;;;;;;;;;54.25;42.50;;;;;2.79;60.37;102457.19;5038663;28;45290;-76
2023/01/29 06:32:16;;;;;;;;;50.50;42.00;;;;;3.53;61.09;102593.88;5038576;28;45428;-76
2023/01/29 06:34:42;;;;;;;;;57.50;43.50;;;;;3.77;61.14;102639.50;5037501;28;46618;-73
2023/01/29 06:37:07;;;;;;;;;50.50;42.75;;;;;3.82;61.17;102645.50;5038174;28;45294;-76
2023/01/29 06:39:33;;;;;;;;;51.00;41.50;;;;;3.74;60.51;102613.31;5038163;28;45448;-75
2023/01/29 06:41:58;;;;;;;;;50.75;38.25;;;;;3.29;60.83;102545.66;5020067;28;45449;-74
2023/01/29 06:44:24;;;;;;;;;54.50;42.00;;;;;3.81;61.07;102646.41;5020015;28;47797;-74
2023/01/29 06:46:49;;;;;;;;;48.50;39.00;;;;;3.70;61.17;102622.22;5038223;28;45417;-74
2023/01/29 06:49:14;;;;;;;;;59.75;39.75;;;;;3.43;61.10;102573.25;5020114;28;45545;-74
2023/01/29 06:51:40;;;;;;;;;51.00;42.00;;;;;3.50;60.62;102577.34;5020312;28;45518;-74
2023/01/29 06:54:07;;;;;;;;;55.75;42.50;;;;;3.89;61.07;102654.00;5020157;28;47537;-76
2023/01/29 06:56:32;;;;;;;;;57.00;44.00;;;;;3.33;60.78;102549.88;5038689;28;45591;-73
2023/01/29 06:58:58;;;;;;;;;55.50;42.50;;;;;3.33;60.66;102531.47;5038654;28;45294;-72
2023/01/29 07:01:24;;;;;;;;;39.50;36.25;;;;;2.91;60.56;102462.88;5020781;28;45290;-72
2023/01/29 07:03:50;;;;;;;;;56.50;45.75;;;;;3.72;60.71;102609.03;5019978;28;48371;-72
2023/01/29 07:06:16;;;;;;;;;49.00;39.00;;;;;3.75;60.77;102614.16;5037830;28;45259;-74
2023/01/29 07:08:41;;;;;;;;;55.75;42.25;;;;;3.68;60.74;102584.59;5037965;28;45282;-73
2023/01/29 07:11:07;;;;;;;;;41.00;35.00;;;;;3.43;60.56;102560.09;5038738;28;45244;-74
2023/01/29 07:13:32;;;;;;;;;51.25;39.75;;;;;3.73;60.21;102616.84;5038788;28;45807;-75
2023/01/29 07:16:02;;;;;;;;;49.50;39.50;;;;;3.80;60.24;102618.34;5019972;28;45539;-74
2023/01/29 07:18:28;;;;;;;;;53.25;41.25;;;;;2.61;60.95;102437.69;5022393;28;45893;-73
2023/01/29 07:20:54;;;;;;;;;64.25;46.50;;;;;3.54;61.09;102581.59;5031745;28;45295;-76
2023/01/29 07:23:20;;;;;;;;;57.50;45.75;;;;;3.84;60.90;102646.28;5057712;28;46470;-74
2023/01/29 07:25:48;;;;;;;;;51.00;40.75;;;;;2.84;61.12;102466.63;5044904;28;45456;-73
2023/01/29 07:28:14;;;;;;;;;50.25;41.75;;;;;3.12;61.34;102524.34;5056015;28;47672;-76
2023/01/29 07:30:39;;;;;;;;;57.00;44.00;;;;;3.78;61.25;102638.59;5034747;28;45512;-71
2023/01/29 07:33:07;;;;;;;;;49.25;40.75;;;;;3.52;61.72;102612.34;5042558;28;46988;-72
2023/01/29 07:35:37;;;;;;;;;57.00;46.50;;;;;3.71;61.03;102650.25;5037829;28;45499;-71
2023/01/29 07:38:03;;;;;;;;;58.75;45.75;;;;;3.10;61.78;102538.44;5037274;28;45297;-71
2023/01/29 07:40:28;;;;;;;;;56.50;44.50;;;;;3.68;61.86;102629.31;5030724;28;45591;-72
2023/01/29 07:43:03;;;;;;;;;57.50;45.25;;;;;2.54;61.78;102462.41;5056521;28;45924;-72
2023/01/29 07:45:29;;;;;;;;;54.00;42.50;;;;;3.52;61.84;102620.25;5035879;28;45505;-71
2023/01/29 07:47:55;;;;;;;;;57.00;47.00;;;;;3.51;61.98;102626.41;5038539;28;45250;-73
2023/01/29 07:50:22;;;;;;;;;64.75;48.50;;;;;3.36;61.49;102619.91;5038874;28;45376;-70
2023/01/29 07:52:48;;;;;;;;;50.75;44.00;;;;;3.62;61.90;102645.31;5037012;28;46601;-71
2023/01/29 07:55:13;;;;;;;;;56.75;42.75;;;;;3.33;61.53;102601.59;5018404;28;55030;-69
2023/01/29 07:57:38;;;;;;;;;61.75;43.25;;;;;3.71;61.69;102641.50;5037182;28;45547;-70
2023/01/29 08:00:04;;;;;;;;;56.25;46.00;;;;;3.46;61.67;102612.56;5045388;28;45303;-71
2023/01/29 08:02:29;;;;;;;;;51.25;40.75;;;;;3.68;62.04;102645.09;5048548;28;46081;-69
2023/01/29 08:04:55;;;;;;;;;57.50;44.50;;;;;3.38;61.54;102601.44;5051836;28;45432;-79
2023/01/29 08:07:20;;;;;;;;;57.00;47.00;;;;;3.77;61.88;102647.41;5042581;28;45228;-74
2023/01/29 08:09:46;;;;;;;;;60.50;45.25;;;;;3.26;61.72;102547.53;5057043;28;45494;-73
2023/01/29 08:12:11;;;;;;;;;63.25;47.00;;;;;2.96;61.24;102510.00;5056909;28;45937;-69
2023/01/29 08:14:36;;;;;;;;;60.25;46.75;;;;;3.75;61.17;102657.13;5039039;28;45578;-73
2023/01/29 08:17:02;;;;;;;;;59.25;45.75;;;;;3.56;61.26;102625.34;5039836;28;45258;-70
2023/01/29 08:19:27;;;;;;;;;56.25;44.00;;;;;3.82;62.19;102668.31;5057113;28;45226;-70
2023/01/29 08:21:52;;;;;;;;;57.50;40.00;;;;;2.87;61.30;102478.81;5038976;28;45521;-73
2023/01/29 08:24:18;;;;;;;;;62.00;49.50;;;;;0.67;61.18;102110.16;5056935;28;45303;-74
2023/01/29 08:26:43;;;;;;;;;58.00;44.50;;;;;3.92;61.29;102638.97;5056380;28;56472;-73
2023/01/29 08:29:10;;;;;;;;;59.00;47.75;;;;;3.88;61.15;102621.59;5056826;28;45366;-73
2023/01/29 08:31:36;;;;;;;;;61.00;46.25;;;;;4.10;60.76;102637.44;5057471;28;45640;-70
2023/01/29 08:34:01;;;;;;;;;65.00;48.00;;;;;4.13;60.69;102621.53;5056558;28;45353;-72
2023/01/29 08:36:26;;;;;;;;;60.25;47.50;;;;;4.20;60.26;102633.53;5056631;28;45601;-71
2023/01/29 08:38:51;;;;;;;;;63.50;47.00;;;;;3.40;60.56;102486.56;5056521;28;45278;-73
2023/01/29 08:41:17;;;;;;;;;58.75;46.75;;;;;4.51;60.28;102637.69;5056196;28;55974;-73
2023/01/29 08:43:42;;;;;;;;;52.50;42.50;;;;;4.28;59.39;102562.19;5056343;28;45452;-70
2023/01/29 08:46:07;;;;;;;;;62.00;48.00;;;;;4.67;58.67;102587.91;5056974;28;45440;-72
2023/01/29 08:48:33;;;;;;;;;59.25;47.75;;;;;4.85;58.01;102579.25;5038699;28;45509;-74
2023/01/29 08:51:01;;;;;;;;;59.25;45.75;;;;;5.57;56.95;102648.28;5038289;28;47351;-73
2023/01/29 08:53:27;;;;;;;;;62.25;49.50;;;;;5.87;56.85;102646.13;5038203;28;45718;-72
2023/01/29 08:55:53;;;;;;;;;62.75;48.50;;;;;5.73;55.78;102601.84;5056477;28;45275;-73
2023/01/29 08:58:18;;;;;;;;;65.50;52.00;;;;;5.21;55.43;102486.38;5059732;28;45286;-71
2023/01/29 09:00:44;;;;;;;;;66.25;50.50;;;;;6.43;55.47;102660.41;5041624;28;47972;-72
2023/01/29 09:03:09;;;;;;;;;59.00;49.75;;;;;5.68;54.23;102518.56;5059809;28;52051;-70
2023/01/29 09:05:36;;;;;;;;;63.25;51.75;;;;;6.39;53.55;102620.03;5060045;28;45534;-70
2023/01/29 09:08:01;;;;;;;;;63.50;50.00;;;;;7.07;52.75;102683.81;5042233;28;45536;-73
2023/01/29 09:10:27;;;;;;;;;60.75;47.75;;;;;7.10;52.28;102684.50;5060016;28;46443;-70
2023/01/29 09:12:53;;;;;;;;;67.25;52.75;;;;;7.25;51.84;102686.41;5043060;28;45349;-71
2023/01/29 09:15:18;;;;;;;;;62.50;50.00;;;;;7.10;51.95;102636.03;5060049;28;45342;-72
2023/01/29 09:17:44;;;;;;;;;63.75;49.75;;;;;7.72;50.91;102692.91;5059871;28;45455;-71
2023/01/29 09:20:09;;;;;;;;;67.50;49.00;;;;;8.03;50.52;102663.91;5059462;28;46486;-71
2023/01/29 09:22:35;;;;;;;;;58.25;44.00;;;;;8.64;49.01;102673.91;5041494;28;46176;-71
2023/01/29 09:25:00;;;;;;;;;64.00;49.25;;;;;9.28;47.47;102675.59;5059384;28;45278;-70
2023/01/29 09:27:25;;;;;;;;;61.25;49.00;;;;;9.47;46.19;102571.81;5059114;28;45459;-74
2023/01/29 09:29:51;;;;;;;;;64.50;50.50;;;;;9.81;44.54;102506.88;5040708;28;47657;-72
2023/01/29 09:32:16;;;;;;;;;59.25;48.00;;;;;11.06;43.03;102605.19;5059358;28;45358;-73
2023/01/29 09:34:41;;;;;;;;;64.00;49.25;;;;;11.28;41.81;102672.00;5059334;28;45477;-75
2023/01/29 09:37:07;;;;;;;;;57.50;46.50;;;;;10.52;42.37;102601.63;5059512;28;45317;-72
2023/01/29 09:39:32;;;;;;;;;65.25;51.00;;;;;10.48;43.13;102654.16;5059166;28;45555;-72
2023/01/29 09:42:03;;;;;;;;;56.50;48.00;;;;;10.31;43.81;102665.84;5059051;28;45565;-74
2023/01/29 09:44:44;;;;;;;;;53.00;45.25;;;;;9.81;44.46;102618.47;5041127;28;45366;-73
2023/01/29 09:47:14;;;;;;;;;59.75;47.75;;;;;9.51;45.04;102601.69;5059362;28;46111;-73
2023/01/29 09:49:46;;;;;;;;;64.00;50.00;;;;;9.31;45.70;102622.31;5059130;28;46511;-75
2023/01/29 09:52:34;;;;;;;;;64.25;50.00;;;;;9.27;45.94;102665.06;5059208;28;45297;-76
2023/01/29 09:55:26;;;;;;;;;62.25;50.75;;;;;9.07;46.20;102667.06;5059192;28;45242;-75
2023/01/29 09:57:56;;;;;;;;;65.50;52.75;;;;;8.79;46.92;102677.47;5059293;28;45374;-73
2023/01/29 10:00:28;;;;;;;;;62.00;49.75;;;;;8.67;47.29;102676.38;5059590;28;45563;-73
2023/01/29 10:03:09;;;;;;;;;61.75;50.00;;;;;8.12;47.77;102615.72;5060109;28;45167;-75
2023/01/29 10:05:56;;;;;;;;;61.50;48.25;;;;;8.29;47.66;102674.91;5059106;28;45427;-75
2023/01/29 10:08:40;;;;;;;;;64.50;51.00;;;;;7.85;48.40;102644.56;5040099;28;45324;-76
2023/01/29 10:11:19;;;;;;;;;66.75;50.50;;;;;7.01;48.62;102521.84;5058739;28;45434;-75
2023/01/29 10:14:10;;;;;;;;;57.75;47.50;;;;;7.87;49.03;102670.94;5058627;28;45174;-74
2023/01/29 10:16:53;;;;;;;;;56.25;47.75;;;;;7.56;49.47;102635.44;5059498;28;45325;-75
2023/01/29 10:19:34;;;;;;;;;62.50;48.75;;;;;7.63;49.54;102671.28;5060474;28;45626;-75
2023/01/29 10:22:20;;;;;;;;;56.00;45.25;;;;;7.54;49.50;102671.72;5059837;28;46514;-74
2023/01/29 10:24:56;;;;;;;;;59.75;46.00;;;;;7.49;49.89;102678.19;5059225;28;45483;-74
2023/01/29 10:27:26;;;;;;;;;55.50;46.25;;;;;7.14;50.06;102619.09;5058335;28;45448;-75
2023/01/29 10:29:54;;;;;;;;;59.50;47.25;;;;;6.86;50.12;102590.50;5058831;28;45549;-75
2023/01/29 10:32:24;;;;;;;;;64.00;50.50;;;;;6.88;50.82;102601.84;5059065;28;46476;-74
2023/01/29 10:35:01;;;;;;;;;60.50;49.25;;;;;7.22;51.12;102662.75;5058751;28;45470;-73
2023/01/29 10:37:38;;;;;;;;;63.75;51.00;;;;;7.17;51.18;102648.88;5040155;28;45990;-73
2023/01/29 10:40:18;;;;;;;;;63.50;49.25;;;;;7.15;51.25;102652.53;5058532;28;45745;-75
2023/01/29 10:43:04;;;;;;;;;69.50;52.00;;;;;7.16;51.66;102641.03;5058318;28;45669;-73
2023/01/29 10:45:29;;;;;;;;;69.75;52.00;;;;;7.13;51.37;102631.44;5058590;28;45361;-74
2023/01/29 10:48:07;;;;;;;;;70.75;52.75;;;;;7.06;51.22;102629.19;5040868;28;45518;-74
2023/01/29 10:50:57;;;;;;;;;64.25;50.75;;;;;6.98;51.60;102629.53;5062019;28;45424;-73
2023/01/29 10:53:43;;;;;;;;;63.75;51.50;;;;;6.94;51.52;102622.69;5059147;28;46615;-72
2023/01/29 10:56:20;;;;;;;;;65.50;51.25;;;;;6.89;52.03;102616.78;5058245;28;45310;-72
2023/01/29 10:59:00;;;;;;;;;64.50;51.50;;;;;6.85;52.07;102626.66;5057789;28;45428;-74
2023/01/29 11:01:25;;;;;;;;;63.00;45.75;;;;;6.68;52.43;102592.25;5058110;28;45479;-75
2023/01/29 11:03:58;;;;;;;;;60.75;49.75;;;;;6.76;52.62;102621.81;5057959;28;45911;-73
2023/01/29 11:06:33;;;;;;;;;60.50;50.00;;;;;6.86;52.65;102617.81;5058818;28;45247;-74
2023/01/29 11:08:58;;;;;;;;;63.00;49.50;;;;;6.92;52.39;102611.34;5058356;28;45391;-73
2023/01/29 11:11:30;;;;;;;;;61.00;49.25;;;;;6.45;52.42;102552.84;5058087;28;45266;-73
2023/01/29 11:14:07;;;;;;;;;67.75;53.00;;;;;5.38;52.76;102367.78;5057815;28;45392;-74
2023/01/29 11:16:45;;;;;;;;;60.50;47.75;;;;;6.40;52.05;102524.00;5039620;28;45846;-74
2023/01/29 11:19:11;;;;;;;;;58.25;45.50;;;;;6.38;52.08;102508.22;5039331;28;45221;-75
2023/01/29 11:21:57;;;;;;;;;62.25;49.25;;;;;6.19;51.64;102441.34;5039556;28;45406;-74
2023/01/29 11:24:24;;;;;;;;;60.25;49.25;;;;;7.01;52.39;102579.19;5039453;28;47529;-76
2023/01/29 11:26:53;;;;;;;;;67.50;50.50;;;;;7.04;52.24;102586.97;5057387;28;45402;-74
2023/01/29 11:29:30;;;;;;;;;63.75;50.00;;;;;7.27;51.71;102591.09;5057176;28;45265;-75
2023/01/29 11:31:57;;;;;;;;;57.75;46.75;;;;;7.40;51.67;102581.56;5039479;28;45635;-72
2023/01/29 11:34:26;;;;;;;;;53.50;44.75;;;;;6.98;51.26;102489.41;5039392;28;45557;-72
2023/01/29 11:37:15;;;;;;;;;55.75;44.75;;;;;7.67;51.10;102578.47;5057355;28;45362;-73
2023/01/29 11:39:47;;;;;;;;;53.67;44.33;;;;;7.79;50.71;102575.16;5029250;28;45478;-73
2023/01/29 11:42:21;;;;;;;;;48.33;39.67;;;;;7.80;49.56;102547.72;5039308;28;45514;-73
2023/01/29 11:44:47;;;;;;;;;55.00;40.33;;;;;7.82;49.23;102530.84;5039017;28;47990;-74
2023/01/29 11:47:15;;;;;;;;;42.00;34.67;;;;;8.11;49.05;102565.47;5057127;28;45448;-75
2023/01/29 11:49:52;;;;;;;;;23.33;23.33;;;;;8.08;48.27;102553.25;5057400;28;45235;-74
2023/01/29 11:52:22;;;;;;;;;29.00;21.67;;;;;8.22;47.98;102569.28;5057201;28;45559;-73
2023/01/29 11:54:59;;;;;;;;;25.33;23.00;;;;;7.83;47.92;102478.75;5057212;28;45419;-77
2023/01/29 11:57:40;;;;;;;;;36.00;29.67;;;;;6.88;47.67;102335.69;5057613;28;45203;-77
2023/01/29 12:00:23;;;;;;;;;28.00;26.00;;;;;8.03;47.42;102512.94;5057277;28;45350;-78
2023/01/29 12:03:27;;;;;;;;;33.33;26.33;;;;;8.33;47.56;102558.06;5057733;28;45325;-77